sensor_id;sensor_type;location;lat;lon;timestamp;P1;durP1;ratioP1;P2;durP2;ratioP2
58974;SDS011;44751;52.236;5.178;2022-07-06T00:02:02;3.67;;;1.08;;
58974;SDS011;44751;52.236;5.178;2022-07-06T00:04:29;4.25;;;1.10;;
58974;SDS011;44751;52.236;5.178;2022-07-06T00:06:59;3.83;;;1.20;;
58974;SDS011;44751;52.236;5.178;2022-07-06T00:09:25;3.05;;;1.20;;
58974;SDS011;44751;52.236;5.178;2022-07-06T00:11:54;2.10;;;1.17;;
58974;SDS011;44751;52.236;5.178;2022-07-06T00:14:20;4.13;;;1.08;;
58974;SDS011;44751;52.236;5.178;2022-07-06T00:16:47;4.25;;;1.58;;
58974;SDS011;44751;52.236;5.178;2022-07-06T00:19:14;3.50;;;1.10;;
58974;SDS011;44751;52.236;5.178;2022-07-06T00:21:40;3.42;;;1.30;;
58974;SDS011;44751;52.236;5.178;2022-07-06T00:24:07;3.95;;;1.48;;
58974;SDS011;44751;52.236;5.178;2022-07-06T00:26:34;5.40;;;1.40;;
58974;SDS011;44751;52.236;5.178;2022-07-06T00:29:00;5.25;;;1.52;;
58974;SDS011;44751;52.236;5.178;2022-07-06T00:31:29;3.03;;;1.25;;
58974;SDS011;44751;52.236;5.178;2022-07-06T00:33:59;3.53;;;1.13;;
58974;SDS011;44751;52.236;5.178;2022-07-06T00:36:25;5.38;;;1.23;;
58974;SDS011;44751;52.236;5.178;2022-07-06T00:38:58;5.85;;;1.70;;
58974;SDS011;44751;52.236;5.178;2022-07-06T00:41:25;4.03;;;1.10;;
58974;SDS011;44751;52.236;5.178;2022-07-06T00:43:55;3.17;;;1.55;;
58974;SDS011;44751;52.236;5.178;2022-07-06T00:46:30;3.65;;;1.08;;
58974;SDS011;44751;52.236;5.178;2022-07-06T00:48:58;3.30;;;1.10;;
58974;SDS011;44751;52.236;5.178;2022-07-06T00:51:25;3.00;;;1.40;;
58974;SDS011;44751;52.236;5.178;2022-07-06T00:54:02;2.50;;;1.40;;
58974;SDS011;44751;52.236;5.178;2022-07-06T00:56:30;3.78;;;1.10;;
58974;SDS011;44751;52.236;5.178;2022-07-06T00:58:58;3.13;;;1.17;;
58974;SDS011;44751;52.236;5.178;2022-07-06T01:01:29;1.98;;;1.10;;
58974;SDS011;44751;52.236;5.178;2022-07-06T01:03:55;3.78;;;1.00;;
58974;SDS011;44751;52.236;5.178;2022-07-06T01:06:23;4.25;;;1.20;;
58974;SDS011;44751;52.236;5.178;2022-07-06T01:08:52;2.53;;;1.38;;
58974;SDS011;44751;52.236;5.178;2022-07-06T01:11:22;3.15;;;1.10;;
58974;SDS011;44751;52.236;5.178;2022-07-06T01:13:49;4.32;;;1.25;;
58974;SDS011;44751;52.236;5.178;2022-07-06T01:16:17;1.48;;;0.90;;
58974;SDS011;44751;52.236;5.178;2022-07-06T01:18:43;5.55;;;1.35;;
58974;SDS011;44751;52.236;5.178;2022-07-06T01:21:13;2.90;;;0.93;;
58974;SDS011;44751;52.236;5.178;2022-07-06T01:23:44;3.85;;;1.30;;
58974;SDS011;44751;52.236;5.178;2022-07-06T01:26:13;3.13;;;1.20;;
58974;SDS011;44751;52.236;5.178;2022-07-06T01:28:42;2.05;;;1.02;;
58974;SDS011;44751;52.236;5.178;2022-07-06T01:31:16;4.45;;;1.40;;
58974;SDS011;44751;52.236;5.178;2022-07-06T01:33:48;4.15;;;1.23;;
58974;SDS011;44751;52.236;5.178;2022-07-06T01:36:15;2.58;;;1.00;;
58974;SDS011;44751;52.236;5.178;2022-07-06T01:38:45;4.60;;;1.10;;
58974;SDS011;44751;52.236;5.178;2022-07-06T01:41:19;4.35;;;1.02;;
58974;SDS011;44751;52.236;5.178;2022-07-06T01:43:49;3.90;;;0.88;;
58974;SDS011;44751;52.236;5.178;2022-07-06T01:46:15;2.33;;;0.90;;
58974;SDS011;44751;52.236;5.178;2022-07-06T01:48:42;3.25;;;1.08;;
58974;SDS011;44751;52.236;5.178;2022-07-06T01:51:08;5.05;;;1.33;;
58974;SDS011;44751;52.236;5.178;2022-07-06T01:53:35;3.80;;;1.00;;
58974;SDS011;44751;52.236;5.178;2022-07-06T01:56:01;2.90;;;1.00;;
58974;SDS011;44751;52.236;5.178;2022-07-06T01:58:28;3.30;;;1.00;;
58974;SDS011;44751;52.236;5.178;2022-07-06T02:00:56;3.50;;;0.93;;
58974;SDS011;44751;52.236;5.178;2022-07-06T02:03:24;3.28;;;1.33;;
58974;SDS011;44751;52.236;5.178;2022-07-06T02:05:52;5.40;;;1.10;;
58974;SDS011;44751;52.236;5.178;2022-07-06T02:08:22;4.18;;;1.25;;
58974;SDS011;44751;52.236;5.178;2022-07-06T02:10:54;2.65;;;1.13;;
58974;SDS011;44751;52.236;5.178;2022-07-06T02:13:23;3.72;;;1.23;;
58974;SDS011;44751;52.236;5.178;2022-07-06T02:15:53;11.45;;;1.60;;
58974;SDS011;44751;52.236;5.178;2022-07-06T02:18:19;4.38;;;1.02;;
58974;SDS011;44751;52.236;5.178;2022-07-06T02:20:48;2.70;;;0.90;;
58974;SDS011;44751;52.236;5.178;2022-07-06T02:23:18;2.90;;;1.00;;
58974;SDS011;44751;52.236;5.178;2022-07-06T02:25:47;3.67;;;0.85;;
58974;SDS011;44751;52.236;5.178;2022-07-06T02:28:14;1.95;;;0.70;;
58974;SDS011;44751;52.236;5.178;2022-07-06T02:30:40;3.17;;;0.95;;
58974;SDS011;44751;52.236;5.178;2022-07-06T02:33:09;3.67;;;0.90;;
58974;SDS011;44751;52.236;5.178;2022-07-06T02:35:35;4.70;;;1.30;;
58974;SDS011;44751;52.236;5.178;2022-07-06T02:38:02;4.00;;;1.10;;
58974;SDS011;44751;52.236;5.178;2022-07-06T02:40:29;2.63;;;1.10;;
58974;SDS011;44751;52.236;5.178;2022-07-06T02:42:55;4.30;;;0.90;;
58974;SDS011;44751;52.236;5.178;2022-07-06T02:45:24;11.57;;;1.20;;
58974;SDS011;44751;52.236;5.178;2022-07-06T02:47:50;3.40;;;1.13;;
58974;SDS011;44751;52.236;5.178;2022-07-06T02:50:18;3.67;;;1.20;;
58974;SDS011;44751;52.236;5.178;2022-07-06T02:52:47;2.38;;;0.95;;
58974;SDS011;44751;52.236;5.178;2022-07-06T02:55:13;3.45;;;0.82;;
58974;SDS011;44751;52.236;5.178;2022-07-06T02:57:40;4.47;;;1.20;;
58974;SDS011;44751;52.236;5.178;2022-07-06T03:00:07;2.88;;;0.90;;
58974;SDS011;44751;52.236;5.178;2022-07-06T03:02:35;3.00;;;0.90;;
58974;SDS011;44751;52.236;5.178;2022-07-06T03:05:02;3.22;;;1.35;;
58974;SDS011;44751;52.236;5.178;2022-07-06T03:07:29;3.15;;;1.00;;
58974;SDS011;44751;52.236;5.178;2022-07-06T03:09:55;2.83;;;0.70;;
58974;SDS011;44751;52.236;5.178;2022-07-06T03:12:25;3.72;;;1.00;;
58974;SDS011;44751;52.236;5.178;2022-07-06T03:14:54;2.50;;;1.30;;
58974;SDS011;44751;52.236;5.178;2022-07-06T03:17:20;4.28;;;1.08;;
58974;SDS011;44751;52.236;5.178;2022-07-06T03:19:47;2.72;;;1.00;;
58974;SDS011;44751;52.236;5.178;2022-07-06T03:22:17;3.25;;;0.80;;
58974;SDS011;44751;52.236;5.178;2022-07-06T03:24:44;2.22;;;0.90;;
58974;SDS011;44751;52.236;5.178;2022-07-06T03:27:10;3.50;;;1.20;;
58974;SDS011;44751;52.236;5.178;2022-07-06T03:29:37;4.35;;;0.82;;
58974;SDS011;44751;52.236;5.178;2022-07-06T03:32:03;3.22;;;0.77;;
58974;SDS011;44751;52.236;5.178;2022-07-06T03:34:30;2.53;;;0.75;;
58974;SDS011;44751;52.236;5.178;2022-07-06T03:36:59;4.00;;;1.17;;
58974;SDS011;44751;52.236;5.178;2022-07-06T03:39:25;3.92;;;1.00;;
58974;SDS011;44751;52.236;5.178;2022-07-06T03:41:55;3.40;;;1.00;;
58974;SDS011;44751;52.236;5.178;2022-07-06T03:44:23;5.32;;;0.98;;
58974;SDS011;44751;52.236;5.178;2022-07-06T03:46:49;3.22;;;0.70;;
58974;SDS011;44751;52.236;5.178;2022-07-06T03:49:17;4.25;;;0.90;;
58974;SDS011;44751;52.236;5.178;2022-07-06T03:51:44;1.70;;;0.80;;
58974;SDS011;44751;52.236;5.178;2022-07-06T03:54:10;2.90;;;0.70;;
58974;SDS011;44751;52.236;5.178;2022-07-06T03:56:37;3.15;;;0.77;;
58974;SDS011;44751;52.236;5.178;2022-07-06T03:59:03;3.78;;;0.82;;
58974;SDS011;44751;52.236;5.178;2022-07-06T04:01:35;4.22;;;1.08;;
58974;SDS011;44751;52.236;5.178;2022-07-06T04:04:02;4.45;;;0.60;;
58974;SDS011;44751;52.236;5.178;2022-07-06T04:06:28;2.83;;;0.95;;
58974;SDS011;44751;52.236;5.178;2022-07-06T04:08:55;3.00;;;0.85;;
58974;SDS011;44751;52.236;5.178;2022-07-06T04:11:24;2.28;;;0.80;;
58974;SDS011;44751;52.236;5.178;2022-07-06T04:13:50;2.92;;;0.77;;
58974;SDS011;44751;52.236;5.178;2022-07-06T04:16:17;1.40;;;0.70;;
58974;SDS011;44751;52.236;5.178;2022-07-06T04:18:43;2.88;;;0.70;;
58974;SDS011;44751;52.236;5.178;2022-07-06T04:21:10;3.72;;;0.93;;
58974;SDS011;44751;52.236;5.178;2022-07-06T04:23:36;2.00;;;0.75;;
58974;SDS011;44751;52.236;5.178;2022-07-06T04:26:03;3.08;;;0.70;;
58974;SDS011;44751;52.236;5.178;2022-07-06T04:28:29;3.38;;;0.98;;
58974;SDS011;44751;52.236;5.178;2022-07-06T04:31:05;3.53;;;0.88;;
58974;SDS011;44751;52.236;5.178;2022-07-06T04:33:45;3.63;;;0.80;;
58974;SDS011;44751;52.236;5.178;2022-07-06T04:36:20;2.45;;;0.80;;
58974;SDS011;44751;52.236;5.178;2022-07-06T04:38:47;3.20;;;0.77;;
58974;SDS011;44751;52.236;5.178;2022-07-06T04:41:13;1.95;;;0.60;;
58974;SDS011;44751;52.236;5.178;2022-07-06T04:43:40;4.28;;;0.80;;
58974;SDS011;44751;52.236;5.178;2022-07-06T04:46:06;0.98;;;0.47;;
58974;SDS011;44751;52.236;5.178;2022-07-06T04:48:32;2.05;;;0.63;;
58974;SDS011;44751;52.236;5.178;2022-07-06T04:51:01;6.05;;;0.85;;
58974;SDS011;44751;52.236;5.178;2022-07-06T04:53:30;2.22;;;0.88;;
58974;SDS011;44751;52.236;5.178;2022-07-06T04:55:59;1.67;;;0.73;;
58974;SDS011;44751;52.236;5.178;2022-07-06T04:58:25;3.30;;;0.90;;
58974;SDS011;44751;52.236;5.178;2022-07-06T05:00:54;5.85;;;0.80;;
58974;SDS011;44751;52.236;5.178;2022-07-06T05:03:20;2.80;;;1.05;;
58974;SDS011;44751;52.236;5.178;2022-07-06T05:05:47;3.53;;;1.10;;
58974;SDS011;44751;52.236;5.178;2022-07-06T05:08:25;2.72;;;0.85;;
58974;SDS011;44751;52.236;5.178;2022-07-06T05:10:53;2.50;;;0.90;;
58974;SDS011;44751;52.236;5.178;2022-07-06T05:13:20;3.88;;;0.80;;
58974;SDS011;44751;52.236;5.178;2022-07-06T05:15:46;2.70;;;0.70;;
58974;SDS011;44751;52.236;5.178;2022-07-06T05:18:13;3.20;;;0.70;;
58974;SDS011;44751;52.236;5.178;2022-07-06T05:20:39;1.90;;;0.80;;
58974;SDS011;44751;52.236;5.178;2022-07-06T05:23:06;5.00;;;1.02;;
58974;SDS011;44751;52.236;5.178;2022-07-06T05:25:32;3.78;;;0.65;;
58974;SDS011;44751;52.236;5.178;2022-07-06T05:27:59;5.50;;;0.95;;
58974;SDS011;44751;52.236;5.178;2022-07-06T05:30:26;7.20;;;0.95;;
58974;SDS011;44751;52.236;5.178;2022-07-06T05:32:53;6.38;;;0.80;;
58974;SDS011;44751;52.236;5.178;2022-07-06T05:35:20;1.58;;;0.68;;
58974;SDS011;44751;52.236;5.178;2022-07-06T05:37:48;2.63;;;0.70;;
58974;SDS011;44751;52.236;5.178;2022-07-06T05:40:17;2.08;;;0.85;;
58974;SDS011;44751;52.236;5.178;2022-07-06T05:42:43;4.13;;;0.98;;
58974;SDS011;44751;52.236;5.178;2022-07-06T05:45:10;1.88;;;0.82;;
58974;SDS011;44751;52.236;5.178;2022-07-06T05:47:39;4.97;;;0.70;;
58974;SDS011;44751;52.236;5.178;2022-07-06T05:50:39;2.83;;;0.70;;
58974;SDS011;44751;52.236;5.178;2022-07-06T05:53:19;3.90;;;1.02;;
58974;SDS011;44751;52.236;5.178;2022-07-06T05:58:24;2.85;;;0.93;;
58974;SDS011;44751;52.236;5.178;2022-07-06T06:00:50;3.88;;;1.65;;
58974;SDS011;44751;52.236;5.178;2022-07-06T06:03:18;5.68;;;1.70;;
58974;SDS011;44751;52.236;5.178;2022-07-06T06:05:46;4.75;;;0.90;;
58974;SDS011;44751;52.236;5.178;2022-07-06T06:08:13;2.60;;;0.95;;
58974;SDS011;44751;52.236;5.178;2022-07-06T06:10:39;4.78;;;0.95;;
58974;SDS011;44751;52.236;5.178;2022-07-06T06:13:05;2.85;;;0.90;;
58974;SDS011;44751;52.236;5.178;2022-07-06T06:15:32;5.72;;;0.98;;
58974;SDS011;44751;52.236;5.178;2022-07-06T06:17:59;3.65;;;0.55;;
58974;SDS011;44751;52.236;5.178;2022-07-06T06:20:29;3.58;;;0.60;;
58974;SDS011;44751;52.236;5.178;2022-07-06T06:22:59;3.45;;;0.85;;
58974;SDS011;44751;52.236;5.178;2022-07-06T06:25:33;3.97;;;0.80;;
58974;SDS011;44751;52.236;5.178;2022-07-06T06:28:04;2.65;;;0.70;;
58974;SDS011;44751;52.236;5.178;2022-07-06T06:30:32;1.98;;;0.70;;
58974;SDS011;44751;52.236;5.178;2022-07-06T06:33:08;2.75;;;0.77;;
58974;SDS011;44751;52.236;5.178;2022-07-06T06:35:46;3.22;;;0.80;;
58974;SDS011;44751;52.236;5.178;2022-07-06T06:38:17;2.97;;;0.50;;
58974;SDS011;44751;52.236;5.178;2022-07-06T06:40:47;4.63;;;0.88;;
58974;SDS011;44751;52.236;5.178;2022-07-06T06:43:14;4.57;;;1.00;;
58974;SDS011;44751;52.236;5.178;2022-07-06T06:45:40;3.05;;;0.95;;
58974;SDS011;44751;52.236;5.178;2022-07-06T06:48:07;2.97;;;0.63;;
58974;SDS011;44751;52.236;5.178;2022-07-06T06:50:35;3.05;;;0.77;;
58974;SDS011;44751;52.236;5.178;2022-07-06T06:53:01;4.72;;;0.88;;
58974;SDS011;44751;52.236;5.178;2022-07-06T06:55:31;3.17;;;0.82;;
58974;SDS011;44751;52.236;5.178;2022-07-06T06:57:57;6.65;;;0.82;;
58974;SDS011;44751;52.236;5.178;2022-07-06T07:00:24;3.53;;;0.60;;
58974;SDS011;44751;52.236;5.178;2022-07-06T07:02:55;2.78;;;0.60;;
58974;SDS011;44751;52.236;5.178;2022-07-06T07:05:23;3.40;;;0.75;;
58974;SDS011;44751;52.236;5.178;2022-07-06T07:07:49;4.85;;;0.80;;
58974;SDS011;44751;52.236;5.178;2022-07-06T07:10:16;3.42;;;0.90;;
58974;SDS011;44751;52.236;5.178;2022-07-06T07:12:43;3.70;;;1.00;;
58974;SDS011;44751;52.236;5.178;2022-07-06T07:15:13;4.57;;;1.00;;
58974;SDS011;44751;52.236;5.178;2022-07-06T07:17:40;4.22;;;1.02;;
58974;SDS011;44751;52.236;5.178;2022-07-06T07:20:07;5.25;;;0.73;;
58974;SDS011;44751;52.236;5.178;2022-07-06T07:22:38;5.00;;;0.98;;
58974;SDS011;44751;52.236;5.178;2022-07-06T07:25:05;4.03;;;0.77;;
58974;SDS011;44751;52.236;5.178;2022-07-06T07:27:32;3.33;;;0.70;;
58974;SDS011;44751;52.236;5.178;2022-07-06T07:29:59;4.60;;;1.17;;
58974;SDS011;44751;52.236;5.178;2022-07-06T07:32:28;3.70;;;0.70;;
58974;SDS011;44751;52.236;5.178;2022-07-06T07:35:00;2.28;;;0.88;;
58974;SDS011;44751;52.236;5.178;2022-07-06T07:37:30;2.72;;;0.60;;
58974;SDS011;44751;52.236;5.178;2022-07-06T07:39:56;2.78;;;0.80;;
58974;SDS011;44751;52.236;5.178;2022-07-06T07:42:23;2.55;;;0.80;;
58974;SDS011;44751;52.236;5.178;2022-07-06T07:44:49;3.05;;;0.60;;
58974;SDS011;44751;52.236;5.178;2022-07-06T07:47:18;3.88;;;0.63;;
58974;SDS011;44751;52.236;5.178;2022-07-06T07:49:52;4.07;;;0.88;;
58974;SDS011;44751;52.236;5.178;2022-07-06T07:52:19;4.43;;;1.00;;
58974;SDS011;44751;52.236;5.178;2022-07-06T07:54:45;1.83;;;0.60;;
58974;SDS011;44751;52.236;5.178;2022-07-06T07:57:12;1.75;;;0.50;;
58974;SDS011;44751;52.236;5.178;2022-07-06T07:59:38;3.70;;;0.77;;
58974;SDS011;44751;52.236;5.178;2022-07-06T08:02:05;3.67;;;0.88;;
58974;SDS011;44751;52.236;5.178;2022-07-06T08:04:38;3.33;;;0.70;;
58974;SDS011;44751;52.236;5.178;2022-07-06T08:07:11;5.50;;;0.90;;
58974;SDS011;44751;52.236;5.178;2022-07-06T08:09:38;1.52;;;0.50;;
58974;SDS011;44751;52.236;5.178;2022-07-06T08:12:04;1.63;;;0.70;;
58974;SDS011;44751;52.236;5.178;2022-07-06T08:14:31;3.65;;;0.80;;
58974;SDS011;44751;52.236;5.178;2022-07-06T08:16:57;1.83;;;0.63;;
58974;SDS011;44751;52.236;5.178;2022-07-06T08:19:30;2.63;;;0.52;;
58974;SDS011;44751;52.236;5.178;2022-07-06T08:21:57;2.60;;;0.95;;
58974;SDS011;44751;52.236;5.178;2022-07-06T08:24:25;1.30;;;0.60;;
58974;SDS011;44751;52.236;5.178;2022-07-06T08:26:54;2.13;;;0.65;;
58974;SDS011;44751;52.236;5.178;2022-07-06T08:29:23;1.58;;;0.50;;
58974;SDS011;44751;52.236;5.178;2022-07-06T08:31:49;1.55;;;0.52;;
58974;SDS011;44751;52.236;5.178;2022-07-06T08:34:31;1.35;;;0.70;;
58974;SDS011;44751;52.236;5.178;2022-07-06T08:36:57;1.70;;;0.60;;
58974;SDS011;44751;52.236;5.178;2022-07-06T08:39:24;1.75;;;0.70;;
58974;SDS011;44751;52.236;5.178;2022-07-06T08:41:50;2.10;;;0.60;;
58974;SDS011;44751;52.236;5.178;2022-07-06T08:44:17;2.45;;;0.70;;
58974;SDS011;44751;52.236;5.178;2022-07-06T08:46:44;2.55;;;0.77;;
58974;SDS011;44751;52.236;5.178;2022-07-06T08:49:15;1.38;;;0.55;;
58974;SDS011;44751;52.236;5.178;2022-07-06T08:51:42;1.05;;;0.40;;
58974;SDS011;44751;52.236;5.178;2022-07-06T08:54:11;0.98;;;0.50;;
58974;SDS011;44751;52.236;5.178;2022-07-06T08:56:38;1.05;;;0.55;;
58974;SDS011;44751;52.236;5.178;2022-07-06T08:59:05;2.00;;;0.50;;
58974;SDS011;44751;52.236;5.178;2022-07-06T09:01:33;1.15;;;0.75;;
58974;SDS011;44751;52.236;5.178;2022-07-06T09:04:02;1.10;;;0.40;;
58974;SDS011;44751;52.236;5.178;2022-07-06T09:06:31;1.88;;;0.40;;
58974;SDS011;44751;52.236;5.178;2022-07-06T09:08:57;1.67;;;0.40;;
58974;SDS011;44751;52.236;5.178;2022-07-06T09:11:25;3.42;;;0.50;;
58974;SDS011;44751;52.236;5.178;2022-07-06T09:13:54;2.15;;;0.40;;
58974;SDS011;44751;52.236;5.178;2022-07-06T09:16:30;0.90;;;0.40;;
58974;SDS011;44751;52.236;5.178;2022-07-06T09:18:57;2.80;;;0.50;;
58974;SDS011;44751;52.236;5.178;2022-07-06T09:21:30;1.33;;;0.50;;
58974;SDS011;44751;52.236;5.178;2022-07-06T09:23:59;1.35;;;0.50;;
58974;SDS011;44751;52.236;5.178;2022-07-06T09:26:28;0.50;;;0.32;;
58974;SDS011;44751;52.236;5.178;2022-07-06T09:28:55;1.63;;;0.40;;
58974;SDS011;44751;52.236;5.178;2022-07-06T09:31:24;1.63;;;0.50;;
58974;SDS011;44751;52.236;5.178;2022-07-06T09:33:57;2.25;;;0.40;;
58974;SDS011;44751;52.236;5.178;2022-07-06T09:39:23;1.80;;;0.57;;
58974;SDS011;44751;52.236;5.178;2022-07-06T09:42:00;1.55;;;0.50;;
58974;SDS011;44751;52.236;5.178;2022-07-06T09:44:29;0.70;;;0.40;;
58974;SDS011;44751;52.236;5.178;2022-07-06T09:47:00;0.40;;;0.30;;
58974;SDS011;44751;52.236;5.178;2022-07-06T09:49:28;1.23;;;0.50;;
58974;SDS011;44751;52.236;5.178;2022-07-06T09:51:56;1.35;;;0.50;;
58974;SDS011;44751;52.236;5.178;2022-07-06T09:54:24;1.05;;;0.60;;
58974;SDS011;44751;52.236;5.178;2022-07-06T09:56:54;1.42;;;0.60;;
58974;SDS011;44751;52.236;5.178;2022-07-06T09:59:29;0.98;;;0.40;;
58974;SDS011;44751;52.236;5.178;2022-07-06T10:02:01;1.98;;;0.40;;
58974;SDS011;44751;52.236;5.178;2022-07-06T10:04:29;0.73;;;0.50;;
58974;SDS011;44751;52.236;5.178;2022-07-06T10:07:06;0.90;;;0.40;;
58974;SDS011;44751;52.236;5.178;2022-07-06T10:09:34;2.45;;;0.43;;
58974;SDS011;44751;52.236;5.178;2022-07-06T10:12:12;2.53;;;0.60;;
58974;SDS011;44751;52.236;5.178;2022-07-06T10:14:51;3.13;;;0.50;;
58974;SDS011;44751;52.236;5.178;2022-07-06T10:17:17;2.10;;;0.35;;
58974;SDS011;44751;52.236;5.178;2022-07-06T10:19:46;1.70;;;0.50;;
58974;SDS011;44751;52.236;5.178;2022-07-06T10:22:13;1.73;;;0.60;;
58974;SDS011;44751;52.236;5.178;2022-07-06T10:24:43;1.45;;;0.52;;
58974;SDS011;44751;52.236;5.178;2022-07-06T10:27:10;3.95;;;0.75;;
58974;SDS011;44751;52.236;5.178;2022-07-06T10:29:36;2.90;;;0.88;;
58974;SDS011;44751;52.236;5.178;2022-07-06T10:32:03;2.50;;;0.43;;
58974;SDS011;44751;52.236;5.178;2022-07-06T10:34:30;0.90;;;0.40;;
58974;SDS011;44751;52.236;5.178;2022-07-06T10:36:56;1.98;;;0.40;;
58974;SDS011;44751;52.236;5.178;2022-07-06T10:39:36;0.85;;;0.40;;
58974;SDS011;44751;52.236;5.178;2022-07-06T10:45:11;2.15;;;0.52;;
58974;SDS011;44751;52.236;5.178;2022-07-06T10:47:39;1.73;;;0.45;;
58974;SDS011;44751;52.236;5.178;2022-07-06T10:50:10;3.13;;;0.50;;
58974;SDS011;44751;52.236;5.178;2022-07-06T10:52:50;2.13;;;0.50;;
58974;SDS011;44751;52.236;5.178;2022-07-06T10:55:31;1.60;;;0.50;;
58974;SDS011;44751;52.236;5.178;2022-07-06T10:57:58;1.05;;;0.40;;
58974;SDS011;44751;52.236;5.178;2022-07-06T11:00:25;1.33;;;0.55;;
58974;SDS011;44751;52.236;5.178;2022-07-06T11:02:51;1.55;;;0.50;;
58974;SDS011;44751;52.236;5.178;2022-07-06T11:08:08;2.05;;;0.50;;
58974;SDS011;44751;52.236;5.178;2022-07-06T11:10:48;3.58;;;0.50;;
58974;SDS011;44751;52.236;5.178;2022-07-06T11:13:24;1.50;;;0.60;;
58974;SDS011;44751;52.236;5.178;2022-07-06T11:16:00;1.98;;;0.63;;
58974;SDS011;44751;52.236;5.178;2022-07-06T11:18:28;1.05;;;0.40;;
58974;SDS011;44751;52.236;5.178;2022-07-06T11:21:20;1.45;;;0.52;;
58974;SDS011;44751;52.236;5.178;2022-07-06T11:23:57;2.67;;;0.50;;
58974;SDS011;44751;52.236;5.178;2022-07-06T11:26:24;1.25;;;0.57;;
58974;SDS011;44751;52.236;5.178;2022-07-06T11:28:51;1.00;;;0.43;;
58974;SDS011;44751;52.236;5.178;2022-07-06T11:31:17;2.42;;;0.70;;
58974;SDS011;44751;52.236;5.178;2022-07-06T11:33:47;0.85;;;0.40;;
58974;SDS011;44751;52.236;5.178;2022-07-06T11:36:17;2.45;;;0.45;;
58974;SDS011;44751;52.236;5.178;2022-07-06T11:38:45;1.95;;;0.60;;
58974;SDS011;44751;52.236;5.178;2022-07-06T11:41:13;1.38;;;0.50;;
58974;SDS011;44751;52.236;5.178;2022-07-06T11:43:40;1.80;;;0.47;;
58974;SDS011;44751;52.236;5.178;2022-07-06T11:46:19;1.88;;;0.73;;
58974;SDS011;44751;52.236;5.178;2022-07-06T11:48:49;1.70;;;0.60;;
58974;SDS011;44751;52.236;5.178;2022-07-06T11:51:17;1.95;;;0.52;;
58974;SDS011;44751;52.236;5.178;2022-07-06T11:53:47;1.75;;;0.65;;
58974;SDS011;44751;52.236;5.178;2022-07-06T11:56:16;0.40;;;0.40;;
58974;SDS011;44751;52.236;5.178;2022-07-06T11:58:46;1.70;;;0.60;;
58974;SDS011;44751;52.236;5.178;2022-07-06T12:01:16;3.03;;;0.60;;
58974;SDS011;44751;52.236;5.178;2022-07-06T12:03:43;2.35;;;0.60;;
58974;SDS011;44751;52.236;5.178;2022-07-06T12:06:14;1.83;;;0.70;;
58974;SDS011;44751;52.236;5.178;2022-07-06T12:08:51;2.20;;;0.70;;
58974;SDS011;44751;52.236;5.178;2022-07-06T12:11:22;1.63;;;0.65;;
58974;SDS011;44751;52.236;5.178;2022-07-06T12:13:57;1.80;;;0.68;;
58974;SDS011;44751;52.236;5.178;2022-07-06T12:16:44;4.07;;;0.70;;
58974;SDS011;44751;52.236;5.178;2022-07-06T12:19:11;2.20;;;0.70;;
58974;SDS011;44751;52.236;5.178;2022-07-06T12:21:42;1.42;;;0.50;;
58974;SDS011;44751;52.236;5.178;2022-07-06T12:24:17;1.55;;;0.68;;
58974;SDS011;44751;52.236;5.178;2022-07-06T12:26:45;1.67;;;0.60;;
58974;SDS011;44751;52.236;5.178;2022-07-06T12:29:12;5.07;;;0.82;;
58974;SDS011;44751;52.236;5.178;2022-07-06T12:31:40;1.05;;;0.50;;
58974;SDS011;44751;52.236;5.178;2022-07-06T12:34:12;1.45;;;0.60;;
58974;SDS011;44751;52.236;5.178;2022-07-06T12:36:43;3.28;;;0.60;;
58974;SDS011;44751;52.236;5.178;2022-07-06T12:39:17;1.45;;;0.70;;
58974;SDS011;44751;52.236;5.178;2022-07-06T12:41:45;2.25;;;0.70;;
58974;SDS011;44751;52.236;5.178;2022-07-06T12:44:22;1.52;;;0.70;;
58974;SDS011;44751;52.236;5.178;2022-07-06T12:46:51;2.83;;;0.60;;
58974;SDS011;44751;52.236;5.178;2022-07-06T12:49:27;2.45;;;0.50;;
58974;SDS011;44751;52.236;5.178;2022-07-06T12:54:41;2.35;;;0.73;;
58974;SDS011;44751;52.236;5.178;2022-07-06T12:57:10;1.27;;;0.55;;
58974;SDS011;44751;52.236;5.178;2022-07-06T12:59:45;2.22;;;0.70;;
58974;SDS011;44751;52.236;5.178;2022-07-06T13:02:24;2.17;;;0.90;;
58974;SDS011;44751;52.236;5.178;2022-07-06T13:05:05;2.33;;;0.80;;
58974;SDS011;44751;52.236;5.178;2022-07-06T13:07:35;1.25;;;0.50;;
58974;SDS011;44751;52.236;5.178;2022-07-06T13:10:03;1.52;;;0.80;;
58974;SDS011;44751;52.236;5.178;2022-07-06T13:12:31;3.33;;;0.90;;
58974;SDS011;44751;52.236;5.178;2022-07-06T13:14:58;1.70;;;0.40;;
58974;SDS011;44751;52.236;5.178;2022-07-06T13:17:24;1.92;;;1.02;;
58974;SDS011;44751;52.236;5.178;2022-07-06T13:19:51;2.45;;;0.93;;
58974;SDS011;44751;52.236;5.178;2022-07-06T13:22:17;1.77;;;0.70;;
58974;SDS011;44751;52.236;5.178;2022-07-06T13:24:44;2.05;;;0.73;;
58974;SDS011;44751;52.236;5.178;2022-07-06T13:27:11;1.23;;;0.80;;
58974;SDS011;44751;52.236;5.178;2022-07-06T13:29:38;2.22;;;0.80;;
58974;SDS011;44751;52.236;5.178;2022-07-06T13:32:04;2.10;;;0.90;;
58974;SDS011;44751;52.236;5.178;2022-07-06T13:34:32;1.55;;;0.80;;
58974;SDS011;44751;52.236;5.178;2022-07-06T13:37:00;2.13;;;0.80;;
58974;SDS011;44751;52.236;5.178;2022-07-06T13:39:26;2.22;;;1.13;;
58974;SDS011;44751;52.236;5.178;2022-07-06T13:41:56;2.33;;;0.90;;
58974;SDS011;44751;52.236;5.178;2022-07-06T13:44:23;2.65;;;0.70;;
58974;SDS011;44751;52.236;5.178;2022-07-06T13:46:50;3.60;;;0.80;;
58974;SDS011;44751;52.236;5.178;2022-07-06T13:49:17;2.95;;;1.20;;
58974;SDS011;44751;52.236;5.178;2022-07-06T13:51:44;4.22;;;0.75;;
58974;SDS011;44751;52.236;5.178;2022-07-06T13:54:10;2.85;;;1.00;;
58974;SDS011;44751;52.236;5.178;2022-07-06T13:56:37;2.53;;;0.70;;
58974;SDS011;44751;52.236;5.178;2022-07-06T13:59:05;3.13;;;0.80;;
58974;SDS011;44751;52.236;5.178;2022-07-06T14:01:32;2.25;;;0.90;;
58974;SDS011;44751;52.236;5.178;2022-07-06T14:03:59;1.67;;;0.90;;
58974;SDS011;44751;52.236;5.178;2022-07-06T14:06:25;1.30;;;0.70;;
58974;SDS011;44751;52.236;5.178;2022-07-06T14:08:52;3.25;;;0.90;;
58974;SDS011;44751;52.236;5.178;2022-07-06T14:11:18;4.65;;;1.00;;
58974;SDS011;44751;52.236;5.178;2022-07-06T14:13:45;1.95;;;0.80;;
58974;SDS011;44751;52.236;5.178;2022-07-06T14:16:11;3.08;;;1.13;;
58974;SDS011;44751;52.236;5.178;2022-07-06T14:18:38;3.50;;;0.82;;
58974;SDS011;44751;52.236;5.178;2022-07-06T14:21:04;2.65;;;1.27;;
58974;SDS011;44751;52.236;5.178;2022-07-06T14:23:31;3.53;;;1.20;;
58974;SDS011;44751;52.236;5.178;2022-07-06T14:25:57;4.30;;;1.20;;
58974;SDS011;44751;52.236;5.178;2022-07-06T14:28:24;4.88;;;1.42;;
58974;SDS011;44751;52.236;5.178;2022-07-06T14:30:51;2.78;;;1.10;;
58974;SDS011;44751;52.236;5.178;2022-07-06T14:33:17;3.30;;;1.20;;
58974;SDS011;44751;52.236;5.178;2022-07-06T14:35:58;4.78;;;1.48;;
58974;SDS011;44751;52.236;5.178;2022-07-06T14:38:28;2.97;;;1.00;;
58974;SDS011;44751;52.236;5.178;2022-07-06T14:40:54;2.78;;;1.13;;
58974;SDS011;44751;52.236;5.178;2022-07-06T14:43:21;4.50;;;1.30;;
58974;SDS011;44751;52.236;5.178;2022-07-06T14:45:47;5.65;;;1.55;;
58974;SDS011;44751;52.236;5.178;2022-07-06T14:48:14;3.13;;;1.52;;
58974;SDS011;44751;52.236;5.178;2022-07-06T14:50:41;4.05;;;1.40;;
58974;SDS011;44751;52.236;5.178;2022-07-06T14:53:08;3.85;;;1.50;;
58974;SDS011;44751;52.236;5.178;2022-07-06T14:55:34;2.97;;;1.70;;
58974;SDS011;44751;52.236;5.178;2022-07-06T14:58:00;4.53;;;1.40;;
58974;SDS011;44751;52.236;5.178;2022-07-06T15:00:27;4.85;;;2.00;;
58974;SDS011;44751;52.236;5.178;2022-07-06T15:02:53;4.70;;;2.10;;
58974;SDS011;44751;52.236;5.178;2022-07-06T15:05:19;4.53;;;2.13;;
58974;SDS011;44751;52.236;5.178;2022-07-06T15:07:46;7.03;;;2.50;;
58974;SDS011;44751;52.236;5.178;2022-07-06T15:10:12;6.20;;;2.47;;
58974;SDS011;44751;52.236;5.178;2022-07-06T15:12:39;6.07;;;2.35;;